sensor_id;sensor_type;location;lat;lon;timestamp;temperature;humidity
18384;DHT22;9318;48.644;9.456;2022-12-17T00:01:04;1.10;99.90
18384;DHT22;9318;48.644;9.456;2022-12-17T00:03:48;1.10;99.90
18384;DHT22;9318;48.644;9.456;2022-12-17T00:06:32;1.10;99.90
18384;DHT22;9318;48.644;9.456;2022-12-17T00:09:17;1.20;99.90
18384;DHT22;9318;48.644;9.456;2022-12-17T00:12:03;1.20;99.90
18384;DHT22;9318;48.644;9.456;2022-12-17T00:14:48;1.20;99.90
18384;DHT22;9318;48.644;9.456;2022-12-17T00:17:32;1.20;99.90
18384;DHT22;9318;48.644;9.456;2022-12-17T00:20:17;1.10;99.90
18384;DHT22;9318;48.644;9.456;2022-12-17T00:23:02;1.20;99.90
18384;DHT22;9318;48.644;9.456;2022-12-17T00:25:50;0.90;99.90
18384;DHT22;9318;48.644;9.456;2022-12-17T00:28:36;1.00;99.90
18384;DHT22;9318;48.644;9.456;2022-12-17T00:31:21;0.90;99.90
18384;DHT22;9318;48.644;9.456;2022-12-17T00:34:07;1.00;99.90
18384;DHT22;9318;48.644;9.456;2022-12-17T00:36:51;1.00;99.90
18384;DHT22;9318;48.644;9.456;2022-12-17T00:39:35;0.80;99.90
18384;DHT22;9318;48.644;9.456;2022-12-17T00:42:20;0.50;99.90
18384;DHT22;9318;48.644;9.456;2022-12-17T00:45:07;0.30;99.90
18384;DHT22;9318;48.644;9.456;2022-12-17T00:47:51;0.50;99.90
18384;DHT22;9318;48.644;9.456;2022-12-17T00:50:36;0.40;99.90
18384;DHT22;9318;48.644;9.456;2022-12-17T00:53:21;0.20;99.90
18384;DHT22;9318;48.644;9.456;2022-12-17T00:56:06;0.30;99.90
18384;DHT22;9318;48.644;9.456;2022-12-17T00:58:50;0.30;99.90
18384;DHT22;9318;48.644;9.456;2022-12-17T01:01:35;0.20;99.90
18384;DHT22;9318;48.644;9.456;2022-12-17T01:04:20;0.30;99.90
18384;DHT22;9318;48.644;9.456;2022-12-17T01:07:05;0.30;99.90
18384;DHT22;9318;48.644;9.456;2022-12-17T01:09:50;0.20;99.90
18384;DHT22;9318;48.644;9.456;2022-12-17T01:12:35;0.20;99.90
18384;DHT22;9318;48.644;9.456;2022-12-17T01:15:19;0.30;99.90
18384;DHT22;9318;48.644;9.456;2022-12-17T01:18:05;0.30;99.90
18384;DHT22;9318;48.644;9.456;2022-12-17T01:20:55;0.20;99.90
18384;DHT22;9318;48.644;9.456;2022-12-17T01:23:40;0.00;99.90
18384;DHT22;9318;48.644;9.456;2022-12-17T01:26:30;0.00;99.90
18384;DHT22;9318;48.644;9.456;2022-12-17T01:29:14;0.00;99.90
18384;DHT22;9318;48.644;9.456;2022-12-17T01:31:59;0.10;99.90
18384;DHT22;9318;48.644;9.456;2022-12-17T01:34:45;0.00;99.90
18384;DHT22;9318;48.644;9.456;2022-12-17T01:37:29;0.10;99.90
18384;DHT22;9318;48.644;9.456;2022-12-17T01:40:17;0.00;99.90
18384;DHT22;9318;48.644;9.456;2022-12-17T01:43:01;-0.10;99.90
18384;DHT22;9318;48.644;9.456;2022-12-17T01:45:47;-0.20;99.90
18384;DHT22;9318;48.644;9.456;2022-12-17T01:48:37;-0.30;99.90
18384;DHT22;9318;48.644;9.456;2022-12-17T01:51:24;-0.10;99.90
18384;DHT22;9318;48.644;9.456;2022-12-17T01:54:10;0.00;99.90
18384;DHT22;9318;48.644;9.456;2022-12-17T01:56:55;0.10;99.90
18384;DHT22;9318;48.644;9.456;2022-12-17T01:59:43;-0.10;99.90
18384;DHT22;9318;48.644;9.456;2022-12-17T02:02:29;-0.10;99.90
18384;DHT22;9318;48.644;9.456;2022-12-17T02:05:14;-0.30;99.90
18384;DHT22;9318;48.644;9.456;2022-12-17T02:08:05;-0.30;99.90
18384;DHT22;9318;48.644;9.456;2022-12-17T02:11:13;-0.20;99.90
18384;DHT22;9318;48.644;9.456;2022-12-17T02:14:05;-0.50;99.90
18384;DHT22;9318;48.644;9.456;2022-12-17T02:16:59;-0.50;99.90
18384;DHT22;9318;48.644;9.456;2022-12-17T02:19:50;-0.30;99.90
18384;DHT22;9318;48.644;9.456;2022-12-17T02:23:03;-0.20;99.90
18384;DHT22;9318;48.644;9.456;2022-12-17T02:25:52;-0.10;99.90
18384;DHT22;9318;48.644;9.456;2022-12-17T02:28:43;-0.20;99.90
18384;DHT22;9318;48.644;9.456;2022-12-17T02:31:30;-0.10;99.90
18384;DHT22;9318;48.644;9.456;2022-12-17T02:34:15;-0.20;99.90
18384;DHT22;9318;48.644;9.456;2022-12-17T02:36:59;-0.30;99.90
18384;DHT22;9318;48.644;9.456;2022-12-17T02:39:43;-0.20;99.90
18384;DHT22;9318;48.644;9.456;2022-12-17T02:42:29;-0.10;99.90
18384;DHT22;9318;48.644;9.456;2022-12-17T02:45:15;-0.20;99.90
18384;DHT22;9318;48.644;9.456;2022-12-17T02:48:01;-0.10;99.90
18384;DHT22;9318;48.644;9.456;2022-12-17T02:50:46;-0.10;99.90
18384;DHT22;9318;48.644;9.456;2022-12-17T02:53:31;0.00;99.90
18384;DHT22;9318;48.644;9.456;2022-12-17T02:56:16;0.00;99.90
18384;DHT22;9318;48.644;9.456;2022-12-17T02:59:00;0.00;99.90
18384;DHT22;9318;48.644;9.456;2022-12-17T03:01:46;-0.10;99.90
18384;DHT22;9318;48.644;9.456;2022-12-17T03:04:30;0.00;99.90
18384;DHT22;9318;48.644;9.456;2022-12-17T03:07:14;0.20;99.90
18384;DHT22;9318;48.644;9.456;2022-12-17T03:09:59;0.40;99.90
18384;DHT22;9318;48.644;9.456;2022-12-17T03:12:43;0.30;99.90
18384;DHT22;9318;48.644;9.456;2022-12-17T03:15:28;0.10;99.90
18384;DHT22;9318;48.644;9.456;2022-12-17T03:18:14;0.10;99.90
18384;DHT22;9318;48.644;9.456;2022-12-17T03:20:58;0.10;99.90
18384;DHT22;9318;48.644;9.456;2022-12-17T03:23:43;0.10;99.90
18384;DHT22;9318;48.644;9.456;2022-12-17T03:26:27;0.10;99.90
18384;DHT22;9318;48.644;9.456;2022-12-17T03:29:12;-0.10;99.90
18384;DHT22;9318;48.644;9.456;2022-12-17T03:31:56;0.10;99.90
18384;DHT22;9318;48.644;9.456;2022-12-17T03:34:42;0.00;99.90
18384;DHT22;9318;48.644;9.456;2022-12-17T03:37:27;-0.10;99.90
18384;DHT22;9318;48.644;9.456;2022-12-17T03:40:11;-0.10;99.90
18384;DHT22;9318;48.644;9.456;2022-12-17T03:42:56;-0.40;99.90
18384;DHT22;9318;48.644;9.456;2022-12-17T03:45:40;-0.20;99.90
18384;DHT22;9318;48.644;9.456;2022-12-17T03:48:25;0.00;99.90
18384;DHT22;9318;48.644;9.456;2022-12-17T03:51:10;0.00;99.90
18384;DHT22;9318;48.644;9.456;2022-12-17T03:53:55;-0.10;99.90
18384;DHT22;9318;48.644;9.456;2022-12-17T03:56:40;-0.10;99.90
18384;DHT22;9318;48.644;9.456;2022-12-17T03:59:24;0.10;99.90
18384;DHT22;9318;48.644;9.456;2022-12-17T04:02:08;0.00;99.90
18384;DHT22;9318;48.644;9.456;2022-12-17T04:04:52;0.20;99.90
18384;DHT22;9318;48.644;9.456;2022-12-17T04:07:37;0.20;99.90
18384;DHT22;9318;48.644;9.456;2022-12-17T04:10:22;0.20;99.90
18384;DHT22;9318;48.644;9.456;2022-12-17T04:13:07;0.50;99.90
18384;DHT22;9318;48.644;9.456;2022-12-17T04:15:51;0.50;99.90
18384;DHT22;9318;48.644;9.456;2022-12-17T04:18:35;0.20;99.90
18384;DHT22;9318;48.644;9.456;2022-12-17T04:21:19;0.30;99.90
18384;DHT22;9318;48.644;9.456;2022-12-17T04:24:05;0.30;99.90
18384;DHT22;9318;48.644;9.456;2022-12-17T04:26:50;0.30;99.90
18384;DHT22;9318;48.644;9.456;2022-12-17T04:29:34;0.40;99.90
18384;DHT22;9318;48.644;9.456;2022-12-17T04:32:18;0.40;99.90
18384;DHT22;9318;48.644;9.456;2022-12-17T04:35:03;0.50;99.90
18384;DHT22;9318;48.644;9.456;2022-12-17T04:37:49;0.70;99.90
18384;DHT22;9318;48.644;9.456;2022-12-17T04:40:35;0.80;99.90
18384;DHT22;9318;48.644;9.456;2022-12-17T04:43:19;0.90;99.90
18384;DHT22;9318;48.644;9.456;2022-12-17T04:46:03;1.00;99.90
18384;DHT22;9318;48.644;9.456;2022-12-17T04:48:47;1.00;99.90
18384;DHT22;9318;48.644;9.456;2022-12-17T04:51:32;1.00;99.90
18384;DHT22;9318;48.644;9.456;2022-12-17T04:54:16;1.00;99.90
18384;DHT22;9318;48.644;9.456;2022-12-17T04:57:01;1.00;99.90
18384;DHT22;9318;48.644;9.456;2022-12-17T04:59:46;0.70;99.90
18384;DHT22;9318;48.644;9.456;2022-12-17T05:02:30;0.20;99.90
18384;DHT22;9318;48.644;9.456;2022-12-17T05:05:15;0.10;99.90
18384;DHT22;9318;48.644;9.456;2022-12-17T05:07:59;-0.40;99.90
18384;DHT22;9318;48.644;9.456;2022-12-17T05:10:43;-0.30;99.90
18384;DHT22;9318;48.644;9.456;2022-12-17T05:13:29;0.10;99.90
18384;DHT22;9318;48.644;9.456;2022-12-17T05:16:14;-0.10;99.90
18384;DHT22;9318;48.644;9.456;2022-12-17T05:18:58;0.30;99.90
18384;DHT22;9318;48.644;9.456;2022-12-17T05:21:42;0.40;99.90
18384;DHT22;9318;48.644;9.456;2022-12-17T05:24:27;0.40;99.90
18384;DHT22;9318;48.644;9.456;2022-12-17T05:27:11;0.60;99.90
18384;DHT22;9318;48.644;9.456;2022-12-17T05:29:57;0.70;99.90
18384;DHT22;9318;48.644;9.456;2022-12-17T05:32:42;0.80;99.90
18384;DHT22;9318;48.644;9.456;2022-12-17T05:35:26;0.60;99.90
18384;DHT22;9318;48.644;9.456;2022-12-17T05:38:10;0.40;99.90
18384;DHT22;9318;48.644;9.456;2022-12-17T05:40:56;0.30;99.90
18384;DHT22;9318;48.644;9.456;2022-12-17T05:43:41;0.40;99.90
18384;DHT22;9318;48.644;9.456;2022-12-17T05:46:27;0.30;99.90
18384;DHT22;9318;48.644;9.456;2022-12-17T05:49:12;0.40;99.90
18384;DHT22;9318;48.644;9.456;2022-12-17T05:51:56;0.50;99.90
18384;DHT22;9318;48.644;9.456;2022-12-17T05:54:41;0.50;99.90
18384;DHT22;9318;48.644;9.456;2022-12-17T05:57:26;0.60;99.90
18384;DHT22;9318;48.644;9.456;2022-12-17T06:00:11;0.50;99.90
18384;DHT22;9318;48.644;9.456;2022-12-17T06:02:58;0.30;99.90
18384;DHT22;9318;48.644;9.456;2022-12-17T06:05:43;-0.30;99.90
18384;DHT22;9318;48.644;9.456;2022-12-17T06:08:28;-0.30;99.90
18384;DHT22;9318;48.644;9.456;2022-12-17T06:11:12;0.20;99.90
18384;DHT22;9318;48.644;9.456;2022-12-17T06:13:57;0.40;99.90
18384;DHT22;9318;48.644;9.456;2022-12-17T06:16:42;0.20;99.90
18384;DHT22;9318;48.644;9.456;2022-12-17T06:19:27;0.20;99.90
18384;DHT22;9318;48.644;9.456;2022-12-17T06:22:12;0.40;99.90
18384;DHT22;9318;48.644;9.456;2022-12-17T06:24:55;0.50;99.90
18384;DHT22;9318;48.644;9.456;2022-12-17T06:27:39;0.10;99.90
18384;DHT22;9318;48.644;9.456;2022-12-17T06:30:24;-0.10;99.90
18384;DHT22;9318;48.644;9.456;2022-12-17T06:33:10;-0.10;99.90
18384;DHT22;9318;48.644;9.456;2022-12-17T06:35:57;-0.10;99.90
18384;DHT22;9318;48.644;9.456;2022-12-17T06:38:41;0.20;99.90
18384;DHT22;9318;48.644;9.456;2022-12-17T06:41:25;0.50;99.90
18384;DHT22;9318;48.644;9.456;2022-12-17T06:44:10;0.80;99.90
18384;DHT22;9318;48.644;9.456;2022-12-17T06:46:54;0.50;99.90
18384;DHT22;9318;48.644;9.456;2022-12-17T06:49:39;0.60;99.90
18384;DHT22;9318;48.644;9.456;2022-12-17T06:52:25;0.10;99.90
18384;DHT22;9318;48.644;9.456;2022-12-17T06:55:10;-0.10;99.90
18384;DHT22;9318;48.644;9.456;2022-12-17T06:57:57;0.30;99.90
18384;DHT22;9318;48.644;9.456;2022-12-17T07:00:42;-0.10;99.90
18384;DHT22;9318;48.644;9.456;2022-12-17T07:03:26;-0.40;99.90
18384;DHT22;9318;48.644;9.456;2022-12-17T07:06:16;-0.60;99.90
18384;DHT22;9318;48.644;9.456;2022-12-17T07:08:58;-0.70;99.90
18384;DHT22;9318;48.644;9.456;2022-12-17T07:11:43;-0.50;99.90
18384;DHT22;9318;48.644;9.456;2022-12-17T07:14:28;-0.30;99.90
18384;DHT22;9318;48.644;9.456;2022-12-17T07:17:13;0.00;99.90
18384;DHT22;9318;48.644;9.456;2022-12-17T07:19:57;0.10;99.90
18384;DHT22;9318;48.644;9.456;2022-12-17T07:22:42;0.00;99.90
18384;DHT22;9318;48.644;9.456;2022-12-17T07:25:28;-0.20;99.90
18384;DHT22;9318;48.644;9.456;2022-12-17T07:28:13;-0.20;99.90
18384;DHT22;9318;48.644;9.456;2022-12-17T07:30:55;-0.30;99.90
18384;DHT22;9318;48.644;9.456;2022-12-17T07:33:39;-0.30;99.90
18384;DHT22;9318;48.644;9.456;2022-12-17T07:36:24;-0.10;99.90
18384;DHT22;9318;48.644;9.456;2022-12-17T07:39:08;0.00;99.90
18384;DHT22;9318;48.644;9.456;2022-12-17T07:41:54;0.10;99.90
18384;DHT22;9318;48.644;9.456;2022-12-17T07:44:38;-0.30;99.90
18384;DHT22;9318;48.644;9.456;2022-12-17T07:47:22;-0.20;99.90
18384;DHT22;9318;48.644;9.456;2022-12-17T07:50:07;0.00;99.90
18384;DHT22;9318;48.644;9.456;2022-12-17T07:52:58;0.20;99.90
18384;DHT22;9318;48.644;9.456;2022-12-17T07:55:42;0.20;99.90
18384;DHT22;9318;48.644;9.456;2022-12-17T07:58:28;0.20;99.90
18384;DHT22;9318;48.644;9.456;2022-12-17T08:01:12;0.10;99.90
18384;DHT22;9318;48.644;9.456;2022-12-17T08:03:53;0.10;99.90
18384;DHT22;9318;48.644;9.456;2022-12-17T08:06:38;0.00;99.90
18384;DHT22;9318;48.644;9.456;2022-12-17T08:09:22;-0.30;99.90
18384;DHT22;9318;48.644;9.456;2022-12-17T08:12:06;-0.10;99.90
18384;DHT22;9318;48.644;9.456;2022-12-17T08:14:52;0.00;99.90
18384;DHT22;9318;48.644;9.456;2022-12-17T08:17:36;0.10;99.90
18384;DHT22;9318;48.644;9.456;2022-12-17T08:20:21;0.10;99.90
18384;DHT22;9318;48.644;9.456;2022-12-17T08:23:05;0.20;99.90
18384;DHT22;9318;48.644;9.456;2022-12-17T08:25:49;0.30;99.90
18384;DHT22;9318;48.644;9.456;2022-12-17T08:28:34;0.40;99.90
18384;DHT22;9318;48.644;9.456;2022-12-17T08:31:21;0.10;99.90
18384;DHT22;9318;48.644;9.456;2022-12-17T08:34:06;0.10;99.90
18384;DHT22;9318;48.644;9.456;2022-12-17T08:36:51;0.20;99.90
18384;DHT22;9318;48.644;9.456;2022-12-17T08:39:36;0.20;99.90
18384;DHT22;9318;48.644;9.456;2022-12-17T08:42:20;0.10;99.90
18384;DHT22;9318;48.644;9.456;2022-12-17T08:45:06;0.10;99.90
18384;DHT22;9318;48.644;9.456;2022-12-17T08:47:52;-0.20;99.90
18384;DHT22;9318;48.644;9.456;2022-12-17T08:50:36;-0.40;99.90
18384;DHT22;9318;48.644;9.456;2022-12-17T08:53:20;-0.30;99.90
18384;DHT22;9318;48.644;9.456;2022-12-17T08:56:05;-0.60;99.90
18384;DHT22;9318;48.644;9.456;2022-12-17T08:58:50;-1.10;99.90
18384;DHT22;9318;48.644;9.456;2022-12-17T09:01:34;-1.50;99.90
18384;DHT22;9318;48.644;9.456;2022-12-17T09:04:20;-1.70;99.90
18384;DHT22;9318;48.644;9.456;2022-12-17T09:07:05;-1.80;99.90
18384;DHT22;9318;48.644;9.456;2022-12-17T09:09:49;-1.90;99.90
18384;DHT22;9318;48.644;9.456;2022-12-17T09:12:34;-2.10;99.90
18384;DHT22;9318;48.644;9.456;2022-12-17T09:15:19;-2.10;99.90
18384;DHT22;9318;48.644;9.456;2022-12-17T09:18:04;-2.20;99.90
18384;DHT22;9318;48.644;9.456;2022-12-17T09:20:52;-2.10;99.90
18384;DHT22;9318;48.644;9.456;2022-12-17T09:23:36;-2.10;99.90
18384;DHT22;9318;48.644;9.456;2022-12-17T09:26:21;-2.20;99.90
18384;DHT22;9318;48.644;9.456;2022-12-17T09:29:05;-2.30;99.90
18384;DHT22;9318;48.644;9.456;2022-12-17T09:31:50;-2.30;99.90
18384;DHT22;9318;48.644;9.456;2022-12-17T09:34:34;-2.30;99.90
18384;DHT22;9318;48.644;9.456;2022-12-17T09:37:20;-2.40;99.90
18384;DHT22;9318;48.644;9.456;2022-12-17T09:40:05;-2.40;99.90
18384;DHT22;9318;48.644;9.456;2022-12-17T09:42:55;-2.50;99.90
18384;DHT22;9318;48.644;9.456;2022-12-17T09:45:45;-2.50;99.90
18384;DHT22;9318;48.644;9.456;2022-12-17T09:48:39;-2.50;99.90
18384;DHT22;9318;48.644;9.456;2022-12-17T09:51:28;-2.40;99.90
18384;DHT22;9318;48.644;9.456;2022-12-17T09:54:25;-2.40;99.90
18384;DHT22;9318;48.644;9.456;2022-12-17T09:57:13;-2.50;99.90
18384;DHT22;9318;48.644;9.456;2022-12-17T10:00:02;-2.50;99.90
18384;DHT22;9318;48.644;9.456;2022-12-17T10:02:46;-2.50;99.90
18384;DHT22;9318;48.644;9.456;2022-12-17T10:05:31;-2.10;99.90
18384;DHT22;9318;48.644;9.456;2022-12-17T10:08:19;-1.90;99.90
18384;DHT22;9318;48.644;9.456;2022-12-17T10:11:18;-1.90;99.90
18384;DHT22;9318;48.644;9.456;2022-12-17T10:14:09;-1.90;99.90
18384;DHT22;9318;48.644;9.456;2022-12-17T10:16:56;-1.90;99.90
18384;DHT22;9318;48.644;9.456;2022-12-17T10:19:41;-2.00;99.90
18384;DHT22;9318;48.644;9.456;2022-12-17T10:22:27;-1.60;99.90
18384;DHT22;9318;48.644;9.456;2022-12-17T10:25:15;-1.30;99.90
18384;DHT22;9318;48.644;9.456;2022-12-17T10:28:04;-0.80;99.90
18384;DHT22;9318;48.644;9.456;2022-12-17T10:30:48;-0.60;99.90
18384;DHT22;9318;48.644;9.456;2022-12-17T10:33:36;-0.50;99.90
18384;DHT22;9318;48.644;9.456;2022-12-17T10:36:23;-0.50;99.90
18384;DHT22;9318;48.644;9.456;2022-12-17T10:39:15;-0.70;99.90
18384;DHT22;9318;48.644;9.456;2022-12-17T10:42:00;-0.70;99.90
18384;DHT22;9318;48.644;9.456;2022-12-17T10:44:45;-0.70;99.90
18384;DHT22;9318;48.644;9.456;2022-12-17T10:47:32;-0.60;99.90
18384;DHT22;9318;48.644;9.456;2022-12-17T10:50:19;-0.40;99.90
18384;DHT22;9318;48.644;9.456;2022-12-17T10:53:15;-0.30;99.90
18384;DHT22;9318;48.644;9.456;2022-12-17T10:56:01;-0.30;99.90
18384;DHT22;9318;48.644;9.456;2022-12-17T10:58:49;-0.30;99.90
18384;DHT22;9318;48.644;9.456;2022-12-17T11:01:36;-0.20;99.90
18384;DHT22;9318;48.644;9.456;2022-12-17T11:04:24;-0.30;99.90
18384;DHT22;9318;48.644;9.456;2022-12-17T11:07:13;-0.40;99.90
18384;DHT22;9318;48.644;9.456;2022-12-17T11:10:00;-0.50;99.90
18384;DHT22;9318;48.644;9.456;2022-12-17T11:12:49;-0.70;99.90
18384;DHT22;9318;48.644;9.456;2022-12-17T11:15:38;-0.70;99.90
18384;DHT22;9318;48.644;9.456;2022-12-17T11:18:29;-0.80;99.90
18384;DHT22;9318;48.644;9.456;2022-12-17T11:21:19;-1.00;99.90
18384;DHT22;9318;48.644;9.456;2022-12-17T11:24:09;-0.90;99.90
18384;DHT22;9318;48.644;9.456;2022-12-17T11:26:55;-1.00;99.90
18384;DHT22;9318;48.644;9.456;2022-12-17T11:29:41;-1.00;99.90
18384;DHT22;9318;48.644;9.456;2022-12-17T11:32:51;-0.90;99.90
18384;DHT22;9318;48.644;9.456;2022-12-17T11:35:47;-1.00;99.90
18384;DHT22;9318;48.644;9.456;2022-12-17T11:38:36;-0.90;99.90
18384;DHT22;9318;48.644;9.456;2022-12-17T11:41:33;-0.80;99.90
18384;DHT22;9318;48.644;9.456;2022-12-17T11:44:33;-0.60;99.90
18384;DHT22;9318;48.644;9.456;2022-12-17T11:47:28;-0.40;99.90
18384;DHT22;9318;48.644;9.456;2022-12-17T11:50:23;-0.20;99.90
18384;DHT22;9318;48.644;9.456;2022-12-17T11:53:17;0.10;99.90
18384;DHT22;9318;48.644;9.456;2022-12-17T11:56:09;0.20;99.90
18384;DHT22;9318;48.644;9.456;2022-12-17T11:59:01;0.20;99.90
18384;DHT22;9318;48.644;9.456;2022-12-17T12:01:55;-0.10;99.90
18384;DHT22;9318;48.644;9.456;2022-12-17T12:04:57;-0.30;99.90
18384;DHT22;9318;48.644;9.456;2022-12-17T12:07:50;-0.30;99.90
18384;DHT22;9318;48.644;9.456;2022-12-17T12:10:43;-0.40;99.90
18384;DHT22;9318;48.644;9.456;2022-12-17T12:13:35;-0.40;99.90
18384;DHT22;9318;48.644;9.456;2022-12-17T12:16:30;-0.30;99.90
18384;DHT22;9318;48.644;9.456;2022-12-17T12:19:18;-0.40;99.90
18384;DHT22;9318;48.644;9.456;2022-12-17T12:22:12;-0.40;99.90
18384;DHT22;9318;48.644;9.456;2022-12-17T12:25:10;-0.20;99.90
18384;DHT22;9318;48.644;9.456;2022-12-17T12:28:08;0.10;99.90
18384;DHT22;9318;48.644;9.456;2022-12-17T12:31:00;0.40;99.90
18384;DHT22;9318;48.644;9.456;2022-12-17T12:33:51;0.70;99.90
18384;DHT22;9318;48.644;9.456;2022-12-17T12:36:37;0.90;99.90
18384;DHT22;9318;48.644;9.456;2022-12-17T12:39:30;1.00;99.90
18384;DHT22;9318;48.644;9.456;2022-12-17T12:42:20;1.20;99.90
18384;DHT22;9318;48.644;9.456;2022-12-17T12:45:22;1.30;99.90
18384;DHT22;9318;48.644;9.456;2022-12-17T12:48:15;1.50;99.90
18384;DHT22;9318;48.644;9.456;2022-12-17T12:51:12;1.50;99.90
18384;DHT22;9318;48.644;9.456;2022-12-17T12:54:00;1.40;99.90
18384;DHT22;9318;48.644;9.456;2022-12-17T12:56:45;1.50;99.90
18384;DHT22;9318;48.644;9.456;2022-12-17T12:59:32;2.00;99.90
18384;DHT22;9318;48.644;9.456;2022-12-17T13:02:27;2.20;99.90
18384;DHT22;9318;48.644;9.456;2022-12-17T13:05:26;2.40;99.90
18384;DHT22;9318;48.644;9.456;2022-12-17T13:08:18;2.40;99.90
18384;DHT22;9318;48.644;9.456;2022-12-17T13:10:47;2.30;99.90
18384;DHT22;9318;48.644;9.456;2022-12-17T13:13:29;2.30;99.90
18384;DHT22;9318;48.644;9.456;2022-12-17T13:16:03;2.30;99.90
18384;DHT22;9318;48.644;9.456;2022-12-17T13:18:36;2.50;99.90
18384;DHT22;9318;48.644;9.456;2022-12-17T13:21:23;2.60;99.90
18384;DHT22;9318;48.644;9.456;2022-12-17T13:23:51;2.60;99.90
18384;DHT22;9318;48.644;9.456;2022-12-17T13:26:23;2.70;99.90
18384;DHT22;9318;48.644;9.456;2022-12-17T13:29:02;2.60;99.90
18384;DHT22;9318;48.644;9.456;2022-12-17T13:31:46;2.50;99.90
18384;DHT22;9318;48.644;9.456;2022-12-17T13:34:23;2.30;99.90
18384;DHT22;9318;48.644;9.456;2022-12-17T13:36:58;2.30;99.90
18384;DHT22;9318;48.644;9.456;2022-12-17T13:39:35;2.20;99.90
18384;DHT22;9318;48.644;9.456;2022-12-17T13:42:16;2.30;99.90
18384;DHT22;9318;48.644;9.456;2022-12-17T13:44:45;2.40;99.90
18384;DHT22;9318;48.644;9.456;2022-12-17T13:47:23;2.50;99.90
18384;DHT22;9318;48.644;9.456;2022-12-17T13:49:53;2.90;99.90
18384;DHT22;9318;48.644;9.456;2022-12-17T13:52:22;3.00;99.90
18384;DHT22;9318;48.644;9.456;2022-12-17T13:54:50;3.30;99.90
18384;DHT22;9318;48.644;9.456;2022-12-17T13:57:20;3.40;99.90
18384;DHT22;9318;48.644;9.456;2022-12-17T13:59:51;3.50;99.90
18384;DHT22;9318;48.644;9.456;2022-12-17T14:02:24;3.20;99.90
18384;DHT22;9318;48.644;9.456;2022-12-17T14:04:54;2.70;99.90
18384;DHT22;9318;48.644;9.456;2022-12-17T14:07:22;2.00;99.90
18384;DHT22;9318;48.644;9.456;2022-12-17T14:09:50;1.70;99.90
18384;DHT22;9318;48.644;9.456;2022-12-17T14:12:20;1.50;99.90
18384;DHT22;9318;48.644;9.456;2022-12-17T14:14:48;1.30;99.90
18384;DHT22;9318;48.644;9.456;2022-12-17T14:17:17;1.10;99.90
18384;DHT22;9318;48.644;9.456;2022-12-17T14:19:46;1.00;99.90
18384;DHT22;9318;48.644;9.456;2022-12-17T14:22:21;0.90;99.90
18384;DHT22;9318;48.644;9.456;2022-12-17T14:24:51;0.80;99.90
18384;DHT22;9318;48.644;9.456;2022-12-17T14:27:22;0.70;99.90
18384;DHT22;9318;48.644;9.456;2022-12-17T14:29:50;0.70;99.90
18384;DHT22;9318;48.644;9.456;2022-12-17T14:32:23;0.70;99.90
18384;DHT22;9318;48.644;9.456;2022-12-17T14:34:51;0.60;99.90
18384;DHT22;9318;48.644;9.456;2022-12-17T14:37:21;0.60;99.90
18384;DHT22;9318;48.644;9.456;2022-12-17T14:39:50;0.60;99.90
18384;DHT22;9318;48.644;9.456;2022-12-17T14:42:20;0.30;99.90
18384;DHT22;9318;48.644;9.456;2022-12-17T14:44:51;0.40;99.90
18384;DHT22;9318;48.644;9.456;2022-12-17T14:47:21;0.30;99.90
18384;DHT22;9318;48.644;9.456;2022-12-17T14:49:54;0.20;99.90
18384;DHT22;9318;48.644;9.456;2022-12-17T14:52:50;0.20;99.90
18384;DHT22;9318;48.644;9.456;2022-12-17T14:55:24;0.00;99.90
18384;DHT22;9318;48.644;9.456;2022-12-17T14:57:52;-0.10;99.90
18384;DHT22;9318;48.644;9.456;2022-12-17T15:00:20;-0.20;99.90
18384;DHT22;9318;48.644;9.456;2022-12-17T15:02:50;-0.20;99.90
18384;DHT22;9318;48.644;9.456;2022-12-17T15:05:18;-0.20;99.90
18384;DHT22;9318;48.644;9.456;2022-12-17T15:07:45;-0.30;99.90
18384;DHT22;9318;48.644;9.456;2022-12-17T15:10:18;-0.50;99.90
18384;DHT22;9318;48.644;9.456;2022-12-17T15:12:46;-0.60;99.90
18384;DHT22;9318;48.644;9.456;2022-12-17T15:15:16;-0.70;99.90
18384;DHT22;9318;48.644;9.456;2022-12-17T15:17:45;-0.80;99.90
18384;DHT22;9318;48.644;9.456;2022-12-17T15:20:16;-0.90;99.90
18384;DHT22;9318;48.644;9.456;2022-12-17T15:22:43;-0.90;99.90
18384;DHT22;9318;48.644;9.456;2022-12-17T15:25:13;-1.00;99.90
18384;DHT22;9318;48.644;9.456;2022-12-17T15:27:41;-1.00;99.90
18384;DHT22;9318;48.644;9.456;2022-12-17T15:30:12;-1.30;99.90
18384;DHT22;9318;48.644;9.456;2022-12-17T15:32:40;-1.50;99.90
18384;DHT22;9318;48.644;9.456;2022-12-17T15:35:08;-1.50;99.90
18384;DHT22;9318;48.644;9.456;2022-12-17T15:37:37;-1.50;99.90
18384;DHT22;9318;48.644;9.456;2022-12-17T15:40:05;-1.50;99.90
18384;DHT22;9318;48.644;9.456;2022-12-17T15:42:34;-1.50;99.90
18384;DHT22;9318;48.644;9.456;2022-12-17T15:45:18;-1.50;99.90
18384;DHT22;9318;48.644;9.456;2022-12-17T15:47:51;-1.50;99.90
18384;DHT22;9318;48.644;9.456;2022-12-17T15:50:19;-1.50;99.90
18384;DHT22;9318;48.644;9.456;2022-12-17T15:52:46;-1.70;99.90
18384;DHT22;9318;48.644;9.456;2022-12-17T15:55:13;-1.70;99.90
18384;DHT22;9318;48.644;9.456;2022-12-17T15:57:42;-1.60;99.90
18384;DHT22;9318;48.644;9.456;2022-12-17T16:00:10;-1.50;99.90
18384;DHT22;9318;48.644;9.456;2022-12-17T16:02:37;-1.50;99.90
18384;DHT22;9318;48.644;9.456;2022-12-17T16:05:05;-1.60;99.90
18384;DHT22;9318;48.644;9.456;2022-12-17T16:07:32;-1.50;99.90
18384;DHT22;9318;48.644;9.456;2022-12-17T16:09:59;-1.60;99.90
18384;DHT22;9318;48.644;9.456;2022-12-17T16:12:27;-1.70;99.90
18384;DHT22;9318;48.644;9.456;2022-12-17T16:14:55;-1.70;99.90
18384;DHT22;9318;48.644;9.456;2022-12-17T16:17:22;-1.90;99.90
18384;DHT22;9318;48.644;9.456;2022-12-17T16:19:49;-2.00;99.90
18384;DHT22;9318;48.644;9.456;2022-12-17T16:22:16;-2.00;99.90
18384;DHT22;9318;48.644;9.456;2022-12-17T16:24:43;-2.00;99.90
18384;DHT22;9318;48.644;9.456;2022-12-17T16:27:10;-2.10;99.90
18384;DHT22;9318;48.644;9.456;2022-12-17T16:29:37;-2.30;99.90
18384;DHT22;9318;48.644;9.456;2022-12-17T16:32:06;-2.40;99.90
18384;DHT22;9318;48.644;9.456;2022-12-17T16:37:09;-2.50;99.90
18384;DHT22;9318;48.644;9.456;2022-12-17T16:39:37;-2.60;99.90
18384;DHT22;9318;48.644;9.456;2022-12-17T16:42:04;-2.60;99.90
18384;DHT22;9318;48.644;9.456;2022-12-17T16:44:31;-2.70;99.90
18384;DHT22;9318;48.644;9.456;2022-12-17T16:46:58;-2.80;99.90
18384;DHT22;9318;48.644;9.456;2022-12-17T16:49:27;-3.00;99.90
18384;DHT22;9318;48.644;9.456;2022-12-17T16:51:55;-3.10;99.90
18384;DHT22;9318;48.644;9.456;2022-12-17T16:54:24;-3.30;99.90
18384;DHT22;9318;48.644;9.456;2022-12-17T16:56:52;-3.40;99.90
18384;DHT22;9318;48.644;9.456;2022-12-17T16:59:20;-3.50;99.90
18384;DHT22;9318;48.644;9.456;2022-12-17T17:01:49;-3.50;99.90
18384;DHT22;9318;48.644;9.456;2022-12-17T17:04:18;-3.40;99.90
18384;DHT22;9318;48.644;9.456;2022-12-17T17:06:49;-3.30;99.90
18384;DHT22;9318;48.644;9.456;2022-12-17T17:09:16;-3.40;99.90
18384;DHT22;9318;48.644;9.456;2022-12-17T17:11:44;-3.30;99.90
18384;DHT22;9318;48.644;9.456;2022-12-17T17:14:11;-3.30;99.90
18384;DHT22;9318;48.644;9.456;2022-12-17T17:16:39;-3.30;99.90
18384;DHT22;9318;48.644;9.456;2022-12-17T17:19:06;-3.30;99.90
18384;DHT22;9318;48.644;9.456;2022-12-17T17:21:34;-3.30;99.90
18384;DHT22;9318;48.644;9.456;2022-12-17T17:24:06;-3.30;99.90
18384;DHT22;9318;48.644;9.456;2022-12-17T17:26:37;-3.30;99.90
18384;DHT22;9318;48.644;9.456;2022-12-17T17:29:05;-3.30;99.90
18384;DHT22;9318;48.644;9.456;2022-12-17T17:31:33;-3.30;99.90
18384;DHT22;9318;48.644;9.456;2022-12-17T17:34:01;-3.30;99.90